createdAt,value
2023-04-18T00:00:50.297Z,8.71
2023-04-18T00:03:29.278Z,8.64
2023-04-18T00:05:58.131Z,8.62
2023-04-18T00:08:25.424Z,8.66
2023-04-18T00:10:53.022Z,8.77
2023-04-18T00:13:20.636Z,8.86
2023-04-18T00:15:51.713Z,8.94
2023-04-18T00:18:22.181Z,9.01
2023-04-18T00:20:51.234Z,9.08
2023-04-18T00:23:19.793Z,9.07
2023-04-18T00:25:49.853Z,9.03
2023-04-18T00:28:21.398Z,9.02
2023-04-18T00:30:52.265Z,9.18
2023-04-18T00:33:29.368Z,9.16
2023-04-18T00:35:59.329Z,9.29
2023-04-18T00:38:30.542Z,9.36
2023-04-18T00:41:02.191Z,9.47
2023-04-18T00:43:29.879Z,9.61
2023-04-18T00:46:03.743Z,9.71
2023-04-18T00:48:36.647Z,9.75
2023-04-18T00:51:09.990Z,9.76
2023-04-18T00:53:40.150Z,9.77
2023-04-18T00:56:08.107Z,9.81
2023-04-18T00:58:41.081Z,9.79
2023-04-18T01:01:11.150Z,9.84
2023-04-18T01:03:40.052Z,9.82
2023-04-18T01:06:18.425Z,9.85
2023-04-18T01:08:54.003Z,9.98
2023-04-18T01:11:21.780Z,10.07
2023-04-18T01:14:07.629Z,10.08
2023-04-18T01:16:37.970Z,10.07
2023-04-18T01:19:06.062Z,10.08
2023-04-18T01:21:37.607Z,10.06
2023-04-18T01:24:10.328Z,10.08
2023-04-18T01:26:40.608Z,10.05
2023-04-18T01:29:18.212Z,10.03
2023-04-18T01:31:48.306Z,9.93
2023-04-18T01:34:21.123Z,9.94
2023-04-18T01:36:48.937Z,9.86
2023-04-18T01:39:19.958Z,9.85
2023-04-18T01:41:47.793Z,9.82
2023-04-18T01:44:20.053Z,9.71
2023-04-18T01:46:47.855Z,9.68
2023-04-18T01:49:16.654Z,9.63
2023-04-18T01:51:46.465Z,9.56
2023-04-18T01:54:15.723Z,9.53
2023-04-18T01:56:53.245Z,9.40
2023-04-18T01:59:20.972Z,9.37
2023-04-18T02:01:49.130Z,9.24
2023-04-18T02:04:22.082Z,9.08
2023-04-18T02:06:51.283Z,9.03
2023-04-18T02:09:20.762Z,9.01
2023-04-18T02:11:49.390Z,8.95
2023-04-18T02:14:20.036Z,8.93
2023-04-18T02:16:47.920Z,8.93
2023-04-18T02:19:23.360Z,8.99
2023-04-18T02:21:54.417Z,9.04
2023-04-18T02:24:22.209Z,9.06
2023-04-18T02:26:49.829Z,9.12
2023-04-18T02:29:19.665Z,9.23
2023-04-18T02:31:47.493Z,9.23
2023-04-18T02:34:23.629Z,9.13
2023-04-18T02:36:53.473Z,9.16
2023-04-18T02:39:21.442Z,9.18
2023-04-18T02:41:52.622Z,9.18
2023-04-18T02:44:24.941Z,9.28
2023-04-18T02:46:52.548Z,9.39
2023-04-18T02:49:20.413Z,9.36
2023-04-18T02:51:48.685Z,9.39
2023-04-18T02:54:20.663Z,9.46
2023-04-18T02:56:59.257Z,9.51
2023-04-18T02:59:39.243Z,9.49
2023-04-18T03:02:33.069Z,9.58
2023-04-18T03:05:09.846Z,9.62
2023-04-18T03:07:38.176Z,9.63
2023-04-18T03:10:06.487Z,9.69
2023-04-18T03:12:39.424Z,9.69
2023-04-18T03:15:07.936Z,9.74
2023-04-18T03:17:36.734Z,9.70
2023-04-18T03:20:15.976Z,9.74
2023-04-18T03:22:47.088Z,9.74
2023-04-18T03:25:26.805Z,9.77
2023-04-18T03:28:00.038Z,9.81
2023-04-18T03:30:30.421Z,9.85
2023-04-18T03:33:05.655Z,9.82
2023-04-18T03:35:45.422Z,9.80
2023-04-18T03:38:13.075Z,9.78
2023-04-18T03:40:43.271Z,9.81
2023-04-18T03:43:23.064Z,9.81
2023-04-18T03:45:53.893Z,9.81
2023-04-18T03:48:21.607Z,9.92
2023-04-18T03:50:50.663Z,9.97
2023-04-18T03:53:18.407Z,9.94
2023-04-18T03:55:46.177Z,9.95
2023-04-18T03:58:20.636Z,9.91
2023-04-18T04:00:52.850Z,9.87
2023-04-18T04:03:27.013Z,9.85
2023-04-18T04:05:58.311Z,9.84
2023-04-18T04:08:28.134Z,9.76
2023-04-18T04:10:57.648Z,9.75
2023-04-18T04:13:25.614Z,9.76
2023-04-18T04:15:54.413Z,9.76
2023-04-18T04:18:31.059Z,9.70
2023-04-18T04:21:01.589Z,9.69
2023-04-18T04:23:42.080Z,9.64
2023-04-18T04:26:18.978Z,9.60
2023-04-18T04:28:58.915Z,9.55
2023-04-18T04:31:29.043Z,9.52
2023-04-18T04:34:00.171Z,9.46
2023-04-18T04:36:28.228Z,9.49
2023-04-18T04:39:01.073Z,9.49
2023-04-18T04:41:37.800Z,9.46
2023-04-18T04:44:08.362Z,9.45
2023-04-18T04:46:39.591Z,9.46
2023-04-18T04:49:23.328Z,9.49
2023-04-18T04:51:54.130Z,9.68
2023-04-18T04:54:40.568Z,9.82
2023-04-18T04:57:11.162Z,9.78
2023-04-18T04:59:51.628Z,9.78
2023-04-18T05:02:24.530Z,9.82
2023-04-18T05:04:52.739Z,9.84
2023-04-18T05:07:26.223Z,9.95
2023-04-18T05:10:07.097Z,10.12
2023-04-18T05:12:37.248Z,10.38
2023-04-18T05:15:28.586Z,10.46
2023-04-18T05:21:35.954Z,10.39
2023-04-18T05:24:49.167Z,10.35
2023-04-18T05:31:41.777Z,10.60
2023-04-18T05:33:50.849Z,10.88
2023-04-18T05:36:35.808Z,11.08
2023-04-18T05:42:50.368Z,11.49
2023-04-18T05:46:07.985Z,11.53
2023-04-18T05:52:01.375Z,11.86
2023-04-18T05:55:01.430Z,12.14
2023-04-18T05:57:58.210Z,12.16
2023-04-18T06:00:44.270Z,12.30
2023-04-18T06:03:48.135Z,12.52
2023-04-18T06:06:21.284Z,12.58
2023-04-18T06:08:48.990Z,12.65
2023-04-18T06:11:18.770Z,13.15
2023-04-18T06:13:50.552Z,13.44
2023-04-18T06:16:19.238Z,13.70
2023-04-18T06:19:01.055Z,14.07
2023-04-18T06:21:30.538Z,14.29
2023-04-18T06:23:59.430Z,14.67
2023-04-18T06:26:26.961Z,14.86
2023-04-18T06:28:54.507Z,15.06
2023-04-18T06:31:22.343Z,15.25
2023-04-18T06:33:49.932Z,15.30
2023-04-18T06:36:17.520Z,15.42
2023-04-18T06:38:45.575Z,15.48
2023-04-18T06:41:17.940Z,15.11
2023-04-18T06:43:59.680Z,15.36
2023-04-18T06:46:30.649Z,15.46
2023-04-18T06:48:59.997Z,15.22
2023-04-18T06:51:27.719Z,15.27
2023-04-18T06:53:55.330Z,15.62
2023-04-18T06:56:23.846Z,15.87
2023-04-18T06:58:52.906Z,16.08
2023-04-18T07:01:22.225Z,16.27
2023-04-18T07:03:50.008Z,16.36
2023-04-18T07:06:17.872Z,16.02
2023-04-18T07:08:48.933Z,16.01
2023-04-18T07:11:18.815Z,16.50
2023-04-18T07:13:48.355Z,16.76
2023-04-18T07:16:15.998Z,16.84
2023-04-18T07:18:43.665Z,16.94
2023-04-18T07:21:12.475Z,17.00
2023-04-18T07:23:42.476Z,17.29
2023-04-18T07:26:13.435Z,17.36
2023-04-18T07:28:43.183Z,17.53
2023-04-18T07:31:11.775Z,17.46
2023-04-18T07:33:39.430Z,17.61
2023-04-18T07:36:07.298Z,17.47
2023-04-18T07:38:37.805Z,17.60
2023-04-18T07:41:08.660Z,17.79
2023-04-18T07:43:36.529Z,17.62
2023-04-18T07:46:06.532Z,17.33
2023-04-18T07:48:34.262Z,17.29
2023-04-18T07:51:04.310Z,17.53
2023-04-18T07:53:31.968Z,17.77
2023-04-18T07:55:59.694Z,17.67
2023-04-18T07:58:27.383Z,17.80
2023-04-18T08:00:55.230Z,17.87
2023-04-18T08:03:36.755Z,17.78
2023-04-18T08:06:19.479Z,17.76
2023-04-18T08:11:39.362Z,18.13
2023-04-18T08:14:09.721Z,18.30
2023-04-18T08:16:40.258Z,18.32
2023-04-18T08:19:11.061Z,18.52
2023-04-18T08:21:39.567Z,18.36
2023-04-18T08:24:10.771Z,18.36
2023-04-18T08:26:42.457Z,18.51
2023-04-18T08:29:12.143Z,18.18
2023-04-18T08:31:44.665Z,17.96
2023-04-18T08:34:19.547Z,17.67
2023-04-18T08:36:47.634Z,17.89
2023-04-18T08:39:18.077Z,18.07
2023-04-18T08:44:46.043Z,18.07
2023-04-18T08:47:14.884Z,17.93
2023-04-18T08:49:46.537Z,18.16
2023-04-18T08:52:21.860Z,17.80
2023-04-18T08:54:59.216Z,18.22
2023-04-18T08:57:33.944Z,18.73
2023-04-18T09:00:13.363Z,18.73
2023-04-18T09:02:44.373Z,18.24
2023-04-18T09:05:14.989Z,18.51
2023-04-18T09:07:46.391Z,18.69
2023-04-18T09:10:36.740Z,19.18
2023-04-18T09:13:05.693Z,19.04
2023-04-18T09:15:34.489Z,19.69
2023-04-18T09:18:25.363Z,19.27
2023-04-18T09:20:53.377Z,18.83
2023-04-18T09:23:24.709Z,18.59
2023-04-18T09:25:55.799Z,19.60
2023-04-18T09:31:29.882Z,19.36
2023-04-18T09:34:08.350Z,18.74
2023-04-18T09:36:41.798Z,19.36
2023-04-18T09:40:14.925Z,19.67
2023-04-18T09:42:36.684Z,19.40
2023-04-18T09:45:08.556Z,19.34
2023-04-18T09:47:46.637Z,19.24
2023-04-18T09:50:25.223Z,19.26
2023-04-18T09:52:55.139Z,19.20
2023-04-18T09:58:11.499Z,19.50
2023-04-18T10:01:00.259Z,19.50
2023-04-18T10:03:45.416Z,20.02
2023-04-18T10:06:16.895Z,20.11
2023-04-18T10:08:45.964Z,19.88
2023-04-18T10:11:14.272Z,19.20
2023-04-18T10:13:46.415Z,19.44
2023-04-18T10:16:15.019Z,19.31
2023-04-18T10:18:43.404Z,19.17
2023-04-18T10:21:11.809Z,19.68
2023-04-18T10:23:40.741Z,20.20
2023-04-18T10:26:10.608Z,20.71
2023-04-18T10:29:09.203Z,21.95
2023-04-18T10:31:39.385Z,23.01
2023-04-18T10:34:07.544Z,23.54
2023-04-18T10:36:37.537Z,23.69
2023-04-18T10:39:32.369Z,24.48
2023-04-18T10:41:59.903Z,24.43
2023-04-18T10:44:30.029Z,23.79
2023-04-18T10:47:04.946Z,22.95
2023-04-18T10:49:40.940Z,22.28
2023-04-18T10:52:11.714Z,22.13
2023-04-18T10:54:51.959Z,21.98
2023-04-18T10:57:19.648Z,21.83
2023-04-18T11:03:08.088Z,21.33
2023-04-18T11:05:40.609Z,21.79
2023-04-18T11:08:25.593Z,21.94
2023-04-18T11:11:00.699Z,20.78
2023-04-18T11:13:30.272Z,21.31
2023-04-18T11:15:57.922Z,21.03
2023-04-18T11:18:25.321Z,21.30
2023-04-18T11:20:53.667Z,21.21
2023-04-18T11:23:25.048Z,21.32
2023-04-18T11:26:09.479Z,21.44
2023-04-18T11:28:36.904Z,21.56
2023-04-18T11:31:17.606Z,20.91
2023-04-18T11:33:52.892Z,21.27
2023-04-18T11:36:21.258Z,21.76
2023-04-18T11:38:58.512Z,21.72
2023-04-18T11:41:26.028Z,21.71
2023-04-18T11:43:53.344Z,21.73
2023-04-18T11:46:20.885Z,21.17
2023-04-18T11:48:50.647Z,20.94
2023-04-18T11:51:35.992Z,21.41
2023-04-18T11:54:04.329Z,21.65
2023-04-18T11:56:33.023Z,21.02
2023-04-18T11:59:08.963Z,21.21
2023-04-18T12:01:36.488Z,21.23
2023-04-18T12:04:05.035Z,21.61
2023-04-18T12:06:48.323Z,21.65
2023-04-18T12:09:23.541Z,21.87
2023-04-18T12:12:08.996Z,21.29
2023-04-18T12:14:38.773Z,20.76
2023-04-18T12:17:06.426Z,20.73
2023-04-18T12:19:51.805Z,21.18
2023-04-18T12:22:42.097Z,21.03
2023-04-18T12:25:13.460Z,20.78
2023-04-18T12:28:17.099Z,21.20
2023-04-18T12:30:54.056Z,21.21
2023-04-18T12:33:51.795Z,21.46
2023-04-18T12:39:26.924Z,21.94
2023-04-18T12:42:07.955Z,21.67
2023-04-18T12:45:04.600Z,21.39
2023-04-18T12:47:46.004Z,21.78
2023-04-18T12:50:29.550Z,21.78
2023-04-18T12:53:03.137Z,21.72
2023-04-18T12:55:31.518Z,21.72
2023-04-18T12:58:19.037Z,21.59
2023-04-18T13:01:00.516Z,21.73
2023-04-18T13:03:32.568Z,21.83
2023-04-18T13:06:10.317Z,21.97
2023-04-18T13:08:50.801Z,22.42
2023-04-18T13:11:24.209Z,21.60
2023-04-18T13:17:53.719Z,22.19
2023-04-18T13:21:00.007Z,21.95
2023-04-18T13:30:43.311Z,21.59
2023-04-18T13:37:02.098Z,20.99
2023-04-18T13:40:39.565Z,20.71
2023-04-18T13:43:52.798Z,20.29
2023-04-18T13:50:09.030Z,20.26
2023-04-18T13:53:28.416Z,20.33
2023-04-18T13:57:14.399Z,20.15
2023-04-18T14:03:41.307Z,20.05
2023-04-18T14:09:25.125Z,19.95
2023-04-18T14:15:20.068Z,20.05
2023-04-18T14:18:39.419Z,20.00
2023-04-18T14:21:35.396Z,20.29
2023-04-18T14:24:13.565Z,20.46
2023-04-18T14:27:09.048Z,20.59
2023-04-18T14:30:12.125Z,20.73
2023-04-18T14:33:47.305Z,20.88
2023-04-18T14:36:30.037Z,20.75
2023-04-18T14:39:31.261Z,20.83
2023-04-18T14:42:30.703Z,20.79
2023-04-18T14:45:30.436Z,21.01
2023-04-18T14:48:22.898Z,20.89
2023-04-18T14:51:23.044Z,21.13
2023-04-18T14:54:43.006Z,21.64
2023-04-18T14:57:31.491Z,21.48
2023-04-18T15:00:48.406Z,21.25
2023-04-18T15:03:39.059Z,21.42
2023-04-18T15:06:36.789Z,20.72
2023-04-18T15:09:57.609Z,20.92
2023-04-18T15:15:56.092Z,20.93
2023-04-18T15:19:21.725Z,20.96
2023-04-18T15:22:11.176Z,20.88
2023-04-18T15:25:05.988Z,20.84
2023-04-18T15:28:39.699Z,20.94
2023-04-18T15:31:26.684Z,20.95
2023-04-18T15:34:07.309Z,20.67
2023-04-18T15:36:43.453Z,20.79
2023-04-18T15:42:22.444Z,20.73
2023-04-18T15:45:33.445Z,20.57
2023-04-18T15:49:11.404Z,20.64
2023-04-18T15:52:13.469Z,20.71
2023-04-18T15:58:22.900Z,20.59
2023-04-18T16:01:09.328Z,20.44
2023-04-18T16:03:48.824Z,20.42
2023-04-18T16:10:08.193Z,20.23
2023-04-18T16:13:01.298Z,20.14
2023-04-18T16:15:52.291Z,20.22
2023-04-18T16:25:31.574Z,19.74
2023-04-18T16:28:36.611Z,19.73
2023-04-18T16:31:16.887Z,19.71
2023-04-18T16:34:01.032Z,19.67
2023-04-18T16:37:10.002Z,19.88
2023-04-18T16:43:30.816Z,19.64
2023-04-18T16:46:26.335Z,19.72
2023-04-18T16:49:22.696Z,19.40
2023-04-18T16:52:16.433Z,19.33
2023-04-18T16:55:17.235Z,19.25
2023-04-18T16:58:18.907Z,19.27
2023-04-18T17:01:14.211Z,19.24
2023-04-18T17:06:54.070Z,19.13
2023-04-18T17:09:44.716Z,19.05
2023-04-18T17:12:41.941Z,18.95
2023-04-18T17:15:25.301Z,18.90
2023-04-18T17:18:24.478Z,18.82
2023-04-18T17:21:10.376Z,18.54
2023-04-18T17:24:31.080Z,18.77
2023-04-18T17:26:59.152Z,18.66
2023-04-18T17:29:26.726Z,18.70
2023-04-18T17:32:00.445Z,18.52
2023-04-18T17:34:32.485Z,18.33
2023-04-18T17:37:00.261Z,18.08
2023-04-18T17:39:36.035Z,17.96
2023-04-18T17:42:11.827Z,18.19
2023-04-18T17:44:54.930Z,18.09
2023-04-18T17:47:59.674Z,17.86
2023-04-18T17:54:13.783Z,17.77
2023-04-18T17:56:59.528Z,17.52
2023-04-18T17:59:58.747Z,17.18
2023-04-18T18:02:55.702Z,17.02
2023-04-18T18:05:54.521Z,17.09
2023-04-18T18:08:27.775Z,16.89
2023-04-18T18:10:55.492Z,16.73
2023-04-18T18:13:23.213Z,16.65
2023-04-18T18:15:51.075Z,16.49
2023-04-18T18:18:30.188Z,16.25
2023-04-18T18:21:00.756Z,16.10
2023-04-18T18:23:31.493Z,15.99
2023-04-18T18:26:02.150Z,15.83
2023-04-18T18:28:29.970Z,15.71
2023-04-18T18:31:05.048Z,15.62
2023-04-18T18:33:41.422Z,15.55
2023-04-18T18:51:57.418Z,14.68
2023-04-18T19:01:30.854Z,14.36
2023-04-18T20:28:03.556Z,13.20
2023-04-18T20:30:38.191Z,13.07
2023-04-18T20:54:49.748Z,12.84
2023-04-18T20:57:20.438Z,12.92
2023-04-18T20:59:49.154Z,12.95
2023-04-18T21:02:16.879Z,12.65
2023-04-18T21:07:44.693Z,12.80
2023-04-18T21:10:15.331Z,12.80
2023-04-18T21:12:47.125Z,12.60
2023-04-18T21:15:14.818Z,12.54
2023-04-18T21:17:50.120Z,12.46
2023-04-18T21:20:20.614Z,12.75
2023-04-18T21:22:58.917Z,12.50
2023-04-18T21:25:26.717Z,12.61
2023-04-18T21:27:54.386Z,12.65
2023-04-18T21:30:27.697Z,12.70
2023-04-18T21:33:25.141Z,13.00
2023-04-18T21:35:55.094Z,13.04
2023-04-18T21:38:27.766Z,13.05
2023-04-18T21:40:57.219Z,12.92
2023-04-18T21:43:28.210Z,13.07
2023-04-18T21:45:59.312Z,13.01
2023-04-18T21:48:29.777Z,13.31
2023-04-18T21:50:58.412Z,13.16
2023-04-18T21:53:26.043Z,13.11
2023-04-18T21:55:53.610Z,13.09
2023-04-18T21:58:22.479Z,13.19
2023-04-18T22:00:59.434Z,13.06
2023-04-18T22:03:29.149Z,13.23
2023-04-18T22:06:02.268Z,12.92
2023-04-18T22:08:54.146Z,12.98
2023-04-18T22:11:27.219Z,12.87
2023-04-18T22:14:03.105Z,12.91
2023-04-18T22:16:54.429Z,12.74
2023-04-18T22:19:29.642Z,12.39
2023-04-18T22:22:00.335Z,12.23
2023-04-18T22:24:47.519Z,12.25
2023-04-18T22:27:25.261Z,12.18
2023-04-18T22:29:55.119Z,12.12
2023-04-18T22:32:41.790Z,12.06
2023-04-18T22:35:31.434Z,12.05
2023-04-18T22:38:04.692Z,11.99
2023-04-18T22:40:57.303Z,11.88
2023-04-18T22:43:29.775Z,11.92
2023-04-18T22:46:04.999Z,11.95
2023-04-18T22:48:40.368Z,11.75
2023-04-18T22:51:23.521Z,11.56
2023-04-18T22:54:04.973Z,11.59
2023-04-18T22:57:02.382Z,11.63
2023-04-18T22:59:30.195Z,11.56
2023-04-18T23:02:11.921Z,11.45
2023-04-18T23:04:46.353Z,11.35
2023-04-18T23:09:55.743Z,11.38
2023-04-18T23:12:31.626Z,11.51
2023-04-18T23:15:34.108Z,11.37
2023-04-18T23:21:01.532Z,11.18
2023-04-18T23:23:31.869Z,11.25
2023-04-18T23:28:43.264Z,11.15
2023-04-18T23:31:44.070Z,11.27
2023-04-18T23:34:11.904Z,11.23
2023-04-18T23:36:50.277Z,11.22
2023-04-18T23:39:30.769Z,11.37
2023-04-18T23:42:28.832Z,11.14
2023-04-18T23:45:12.785Z,11.22
2023-04-18T23:48:05.727Z,11.37
2023-04-18T23:50:57.289Z,11.35
2023-04-18T23:53:53.914Z,11.33
2023-04-18T23:56:26.227Z,11.64
2023-04-18T23:59:10.241Z,11.63
